MST,Max TemperatureF,Mean TemperatureF,Min TemperatureF,Max Dew PointF,MeanDew PointF,Min DewpointF,Max Humidity, Mean Humidity, Min Humidity, Max Sea Level PressureIn, Mean Sea Level PressureIn, Min Sea Level PressureIn, Max VisibilityMiles, Mean VisibilityMiles, Min VisibilityMiles, Max Wind SpeedMPH, Mean Wind SpeedMPH, Max Gust SpeedMPH,PrecipitationIn, CloudCover, Events, WindDirDegrees
2013-2-1,40,30,19,28,21,15,84,66,48,30.28,30.11,30.02,10,9,1,23,13,30,T,4,Snow,255
2013-2-2,48,34,20,18,14,10,84,54,23,30.37,30.32,30.23,10,10,10,26,13,32,0.00,0,,241
2013-2-3,44,32,20,17,15,12,68,48,28,30.20,30.05,29.92,10,10,10,28,15,36,0.00,0,,232
2013-2-4,50,37,23,17,13,10,63,43,23,29.98,29.90,29.82,10,10,10,26,17,35,0.00,2,,235
2013-2-5,49,38,27,19,17,15,58,43,28,30.02,29.89,29.76,10,10,10,24,16,31,0.00,1,,220
2013-2-6,46,33,20,21,17,12,81,54,27,30.13,29.90,29.74,10,10,10,20,9,26,T,2,,337
2013-2-7,44,30,16,17,11,7,84,54,23,30.24,30.10,29.97,10,10,10,30,13,37,0.00,0,,231
2013-2-8,47,36,25,27,15,7,85,55,25,29.96,29.84,29.75,10,9,2,23,9,28,0.01,4,Snow,351
2013-2-9,28,26,24,25,22,20,92,84,75,29.81,29.72,29.62,10,4,0,17,12,22,0.20,8,Fog-Snow,21
2013-2-10,25,10,-5,20,10,-8,92,80,68,30.24,29.96,29.71,10,9,2,26,10,32,T,6,Snow,346
2013-2-11,19,10,0,7,2,-5,87,72,56,30.32,30.19,29.96,10,10,10,24,13,26,0.00,0,,227
2013-2-12,24,18,12,13,8,2,68,63,58,30.23,30.18,30.11,10,10,10,31,21,38,0.00,1,,212
2013-2-13,39,30,21,27,19,12,88,69,50,30.10,30.04,29.95,10,10,10,28,16,35,0.00,2,,216
2013-2-14,27,23,19,23,16,12,88,78,68,30.38,30.26,30.05,10,6,2,37,9,46,0.02,8,Snow,320
2013-2-15,34,24,13,18,15,9,84,66,47,30.45,30.36,30.23,10,10,10,22,12,29,0.01,3,Snow,253
2013-2-16,42,33,24,22,18,14,63,52,40,30.26,30.12,29.89,10,10,10,33,19,71,0.00,0,,223
2013-2-17,44,34,23,24,18,12,92,61,30,29.91,29.77,29.62,10,10,7,35,17,43,T,4,Snow,298
2013-2-18,34,23,12,21,14,6,92,66,39,30.18,30.04,29.87,10,10,2,23,8,28,0.01,5,Snow,273
2013-2-19,43,23,2,16,9,2,88,55,22,30.12,29.93,29.73,10,10,10,30,9,37,0.00,0,,152
2013-2-20,39,28,16,18,15,11,84,61,37,29.82,29.74,29.61,10,10,7,16,7,,0.00,2,,55
2013-2-21,26,20,14,18,16,9,91,77,63,29.99,29.88,29.76,10,5,2,18,9,24,T,7,Snow,336
2013-2-22,36,23,10,17,9,3,88,57,26,30.04,29.95,29.81,10,10,10,25,12,93,0.00,2,,235
2013-2-23,39,30,21,26,19,9,92,66,40,29.82,29.72,29.62,10,5,0,32,19,39,0.16,6,Fog-Snow,248
2013-2-24,29,19,9,20,16,5,88,73,58,30.24,30.04,29.75,10,7,3,32,11,38,T,6,Snow,8
2013-2-25,29,19,9,15,9,4,83,67,50,30.19,30.04,29.88,10,10,10,35,22,39,0.00,1,,217
2013-2-26,29,19,9,22,20,11,96,73,50,30.30,29.99,29.79,10,3,0,24,8,30,0.09,8,Fog-Snow,297
2013-2-27,23,15,7,12,9,4,88,71,54,30.43,30.37,30.22,10,10,10,25,13,30,0.00,2,,231
2013-2-28,33,24,14,17,11,6,80,65,49,30.41,30.34,30.20,10,10,10,28,15,43,0.00,1,,232